SVA1123 LFPG-OERK
Flight info
| Callsign | SVA1123 |
|---|---|
| Flight time | 5h 11m |
| Altitude | 35000 |
| Route | LANVI6G LANVI DCT HOC L613 RONAG DCT LAMPO DCT BABAG DCT ZDA DCT VAKSU DCT PINDO UL607 PIKOS/N0481F370 UL607 KEA UL52 VAXOS N134 TULEP N318 NEVOL Q255 PAXAN T503 METNI DCT |
| Aircraft | B77W/H-SDE1E2E3FGHIJ2J3J4J5M1RWXY/LB1D1 |
Departure
| Time | 2026-05-04 09:51 |
|---|---|
| Airport | Charles de Gaulle International Airport (LFPG) |
Arrival
| Time | 2026-05-04 15:02 |
|---|---|
| Airport | King Khalid International Airport (OERK) |
| Time | Latitude | Longitude | Altitude | Speed | Heading |
|---|---|---|---|---|---|
| 2026-05-04 09:49 | 49.02124 | 2.52377 | 359 ft | 0 kts | 85° |
| 2026-05-04 09:49 | 49.02124 | 2.52378 | 359 ft | 1 kts | 85° |
| 2026-05-04 09:51 | 49.02379 | 2.58898 | 1773 ft | 223 kts | 93° |
| 2026-05-04 09:51 | 49.02343 | 2.59706 | 2027 ft | 227 kts | 97° |
| 2026-05-04 09:52 | 49.00331 | 2.70247 | 5988 ft | 232 kts | 103° |
| 2026-05-04 09:52 | 49.00020 | 2.71926 | 6458 ft | 235 kts | 112° |
| 2026-05-04 09:52 | 48.99425 | 2.74242 | 7062 ft | 244 kts | 113° |
| 2026-05-04 09:52 | 48.98755 | 2.76783 | 7408 ft | 268 kts | 112° |
| 2026-05-04 09:53 | 48.98080 | 2.79455 | 8179 ft | 276 kts | 111° |
| 2026-05-04 09:53 | 48.97411 | 2.82222 | 9115 ft | 281 kts | 110° |
| 2026-05-04 09:53 | 48.96751 | 2.85063 | 10023 ft | 288 kts | 110° |
| 2026-05-04 09:53 | 48.96094 | 2.87982 | 10785 ft | 297 kts | 109° |
| 2026-05-04 09:54 | 48.95431 | 2.90990 | 11565 ft | 304 kts | 109° |
| 2026-05-04 09:54 | 48.94773 | 2.94035 | 12360 ft | 308 kts | 108° |
| 2026-05-04 09:54 | 48.94106 | 2.97155 | 13220 ft | 311 kts | 108° |
| 2026-05-04 09:54 | 48.93439 | 3.00306 | 14043 ft | 315 kts | 108° |
| 2026-05-04 09:55 | 48.92766 | 3.03499 | 14794 ft | 319 kts | 108° |
| 2026-05-04 09:55 | 48.92087 | 3.06732 | 15566 ft | 322 kts | 108° |
| 2026-05-04 09:55 | 48.91400 | 3.10007 | 16305 ft | 326 kts | 109° |
| 2026-05-04 09:55 | 48.90705 | 3.13318 | 17061 ft | 330 kts | 109° |
| 2026-05-04 09:56 | 48.90008 | 3.16636 | 17821 ft | 334 kts | 110° |
| 2026-05-04 09:56 | 48.89297 | 3.20022 | 18554 ft | 338 kts | 110° |
| 2026-05-04 09:56 | 48.88579 | 3.23436 | 19265 ft | 341 kts | 110° |
| 2026-05-04 09:56 | 48.87853 | 3.26879 | 19978 ft | 343 kts | 110° |
| 2026-05-04 09:57 | 48.87118 | 3.30362 | 20674 ft | 347 kts | 111° |
| 2026-05-04 09:57 | 48.86376 | 3.33876 | 21362 ft | 351 kts | 111° |
| 2026-05-04 09:57 | 48.85626 | 3.37415 | 22048 ft | 354 kts | 111° |
| 2026-05-04 09:57 | 48.84865 | 3.41002 | 22750 ft | 358 kts | 112° |
| 2026-05-04 09:58 | 48.84096 | 3.44621 | 23446 ft | 361 kts | 112° |
| 2026-05-04 09:58 | 48.83320 | 3.48264 | 24037 ft | 365 kts | 112° |
| 2026-05-04 09:58 | 48.82547 | 3.51892 | 24599 ft | 367 kts | 112° |
| 2026-05-04 10:00 | 48.76834 | 3.78486 | 28411 ft | 391 kts | 113° |
| 2026-05-04 10:00 | 48.75982 | 3.82426 | 28944 ft | 395 kts | 113° |
| 2026-05-04 10:02 | 48.69777 | 4.10877 | 31997 ft | 418 kts | 114° |
| 2026-05-04 10:04 | 48.63189 | 4.40670 | 34196 ft | 439 kts | 115° |
| 2026-05-04 10:04 | 48.62211 | 4.45056 | 34462 ft | 441 kts | 115° |
| 2026-05-04 10:04 | 48.61225 | 4.49470 | 34724 ft | 444 kts | 115° |
| 2026-05-04 10:04 | 48.60231 | 4.53909 | 34922 ft | 449 kts | 115° |
| 2026-05-04 10:05 | 48.59222 | 4.58401 | 34959 ft | 453 kts | 115° |
| 2026-05-04 10:05 | 48.57223 | 4.67305 | 34988 ft | 447 kts | 115° |
| 2026-05-04 10:06 | 48.55194 | 4.76277 | 35018 ft | 459 kts | 115° |
| 2026-05-04 10:06 | 48.53092 | 4.85510 | 35018 ft | 472 kts | 115° |
| 2026-05-04 10:08 | 48.46456 | 5.14503 | 35011 ft | 495 kts | 114° |
| 2026-05-04 10:08 | 48.45329 | 5.19397 | 34991 ft | 495 kts | 114° |
| 2026-05-04 10:08 | 48.43078 | 5.29124 | 35015 ft | 494 kts | 115° |
| 2026-05-04 10:09 | 48.40802 | 5.38907 | 35023 ft | 494 kts | 115° |
| 2026-05-04 10:09 | 48.38525 | 5.48642 | 35016 ft | 494 kts | 115° |
| 2026-05-04 10:10 | 48.36248 | 5.58343 | 35028 ft | 495 kts | 115° |
| 2026-05-04 10:10 | 48.33946 | 5.68112 | 35018 ft | 495 kts | 115° |
| 2026-05-04 10:11 | 48.31553 | 5.77809 | 35022 ft | 491 kts | 119° |
| 2026-05-04 10:11 | 48.28254 | 5.86684 | 35024 ft | 483 kts | 129° |
| 2026-05-04 10:12 | 48.24533 | 5.94992 | 35025 ft | 483 kts | 129° |
| 2026-05-04 10:12 | 48.20797 | 6.03379 | 35012 ft | 483 kts | 129° |
| 2026-05-04 10:13 | 48.17078 | 6.11781 | 35029 ft | 483 kts | 129° |
| 2026-05-04 10:13 | 48.13347 | 6.20210 | 35055 ft | 484 kts | 129° |
| 2026-05-04 10:14 | 48.09639 | 6.28561 | 35029 ft | 485 kts | 129° |
| 2026-05-04 10:16 | 47.94618 | 6.62119 | 35038 ft | 486 kts | 129° |
| 2026-05-04 10:16 | 47.90869 | 6.70429 | 35051 ft | 486 kts | 129° |
| 2026-05-04 10:17 | 47.87087 | 6.78786 | 34995 ft | 487 kts | 129° |
| 2026-05-04 10:19 | 47.71848 | 7.12210 | 35047 ft | 489 kts | 129° |
| 2026-05-04 10:19 | 47.67998 | 7.20587 | 35015 ft | 491 kts | 129° |
| 2026-05-04 10:20 | 47.64168 | 7.28901 | 35023 ft | 491 kts | 129° |
| 2026-05-04 10:20 | 47.60306 | 7.37259 | 35034 ft | 491 kts | 129° |
| 2026-05-04 10:21 | 47.56437 | 7.45605 | 35030 ft | 491 kts | 129° |
| 2026-05-04 10:21 | 47.52569 | 7.53925 | 35005 ft | 490 kts | 129° |
| 2026-05-04 10:22 | 47.46943 | 7.66610 | 35040 ft | 496 kts | 122° |
| 2026-05-04 10:23 | 47.44245 | 7.76085 | 35027 ft | 503 kts | 114° |
| 2026-05-04 10:25 | 47.34776 | 8.14954 | 35025 ft | 504 kts | 114° |
| 2026-05-04 10:25 | 47.32365 | 8.24636 | 35032 ft | 504 kts | 114° |
| 2026-05-04 10:26 | 47.29940 | 8.34338 | 35014 ft | 503 kts | 114° |
| 2026-05-04 10:26 | 47.27508 | 8.44013 | 35028 ft | 503 kts | 114° |
| 2026-05-04 10:27 | 47.25083 | 8.53636 | 35032 ft | 504 kts | 114° |
| 2026-05-04 10:27 | 47.22661 | 8.63254 | 35025 ft | 504 kts | 114° |
| 2026-05-04 10:28 | 47.20213 | 8.72937 | 35023 ft | 507 kts | 114° |
| 2026-05-04 10:28 | 47.17742 | 8.82721 | 35034 ft | 511 kts | 114° |
| 2026-05-04 10:29 | 47.15267 | 8.92487 | 35026 ft | 504 kts | 114° |
| 2026-05-04 10:29 | 47.12703 | 9.01937 | 35031 ft | 499 kts | 115° |
| 2026-05-04 10:30 | 47.10084 | 9.11354 | 35027 ft | 497 kts | 115° |
| 2026-05-04 10:30 | 47.07492 | 9.20760 | 35042 ft | 497 kts | 115° |
| 2026-05-04 10:31 | 47.04896 | 9.30173 | 35038 ft | 498 kts | 115° |
| 2026-05-04 10:32 | 46.95737 | 9.63061 | 35060 ft | 499 kts | 115° |
| 2026-05-04 10:33 | 46.93115 | 9.72401 | 35074 ft | 498 kts | 115° |
| 2026-05-04 10:33 | 46.90455 | 9.81837 | 35056 ft | 498 kts | 115° |
| 2026-05-04 10:34 | 46.87804 | 9.91202 | 35095 ft | 498 kts | 115° |
| 2026-05-04 10:34 | 46.85164 | 10.00499 | 35120 ft | 498 kts | 115° |
| 2026-05-04 10:35 | 46.82500 | 10.09846 | 35119 ft | 498 kts | 115° |
| 2026-05-04 10:35 | 46.79832 | 10.19169 | 35121 ft | 497 kts | 115° |
| 2026-05-04 10:36 | 46.76908 | 10.28240 | 35105 ft | 494 kts | 123° |
| 2026-05-04 10:36 | 46.73744 | 10.35231 | 35111 ft | 491 kts | 127° |
| 2026-05-04 10:37 | 46.69929 | 10.43415 | 35106 ft | 491 kts | 127° |
| 2026-05-04 10:37 | 46.66119 | 10.51657 | 35122 ft | 491 kts | 126° |
| 2026-05-04 10:39 | 46.52779 | 10.80577 | 35126 ft | 494 kts | 127° |
| 2026-05-04 10:40 | 46.48933 | 10.88859 | 35119 ft | 494 kts | 126° |
| 2026-05-04 10:40 | 46.45084 | 10.97122 | 35095 ft | 494 kts | 126° |
| 2026-05-04 10:41 | 46.41241 | 11.05348 | 35109 ft | 492 kts | 126° |
| 2026-05-04 10:41 | 46.39340 | 11.09409 | 35238 ft | 492 kts | 126° |
| 2026-05-04 10:41 | 46.37416 | 11.13513 | 35242 ft | 492 kts | 126° |
| 2026-05-04 10:42 | 46.33554 | 11.21732 | 35243 ft | 493 kts | 126° |
| 2026-05-04 10:42 | 46.31626 | 11.25827 | 35101 ft | 493 kts | 126° |
| 2026-05-04 10:42 | 46.29688 | 11.29934 | 35093 ft | 493 kts | 126° |
| 2026-05-04 10:43 | 46.25836 | 11.38083 | 35097 ft | 494 kts | 127° |
| 2026-05-04 10:45 | 46.10173 | 11.70987 | 35103 ft | 497 kts | 127° |
| 2026-05-04 10:45 | 46.06217 | 11.79063 | 35107 ft | 495 kts | 128° |
| 2026-05-04 10:46 | 46.02211 | 11.87126 | 35103 ft | 494 kts | 128° |
| 2026-05-04 10:46 | 45.98212 | 11.95173 | 35090 ft | 494 kts | 127° |
| 2026-05-04 10:47 | 45.94212 | 12.03222 | 35087 ft | 494 kts | 127° |
| 2026-05-04 10:47 | 45.90217 | 12.11245 | 35115 ft | 494 kts | 127° |
| 2026-05-04 10:49 | 45.76357 | 12.38896 | 35109 ft | 494 kts | 127° |
| 2026-05-04 10:50 | 45.72985 | 12.45582 | 35110 ft | 495 kts | 127° |
| 2026-05-04 10:52 | 45.58373 | 12.74377 | 35110 ft | 497 kts | 127° |
| 2026-05-04 10:52 | 45.54293 | 12.82367 | 35108 ft | 498 kts | 128° |
| 2026-05-04 10:54 | 45.37916 | 13.14200 | 35123 ft | 500 kts | 128° |
| 2026-05-04 10:56 | 45.20559 | 13.45164 | 35127 ft | 502 kts | 130° |
| 2026-05-04 10:57 | 45.16205 | 13.52912 | 35131 ft | 503 kts | 130° |
| 2026-05-04 10:57 | 45.11870 | 13.60605 | 35127 ft | 503 kts | 130° |
| 2026-05-04 10:58 | 45.07498 | 13.68340 | 35142 ft | 504 kts | 130° |
| 2026-05-04 10:58 | 45.03103 | 13.76093 | 35149 ft | 504 kts | 130° |
| 2026-05-04 10:59 | 44.98700 | 13.83838 | 35137 ft | 505 kts | 130° |
| 2026-05-04 10:59 | 44.94295 | 13.91567 | 35129 ft | 505 kts | 130° |
| 2026-05-04 11:00 | 44.89880 | 13.99290 | 35137 ft | 505 kts | 130° |
| 2026-05-04 11:02 | 44.72184 | 14.30043 | 35158 ft | 507 kts | 130° |
| 2026-05-04 11:05 | 44.38545 | 14.87604 | 35155 ft | 509 kts | 130° |
| 2026-05-04 11:06 | 44.34034 | 14.95236 | 35155 ft | 509 kts | 130° |
| 2026-05-04 11:06 | 44.29520 | 15.02852 | 35157 ft | 508 kts | 130° |
| 2026-05-04 11:10 | 43.97483 | 15.55647 | 35163 ft | 513 kts | 131° |
| 2026-05-04 11:12 | 43.78649 | 15.85532 | 35158 ft | 515 kts | 131° |
| 2026-05-04 11:12 | 43.73920 | 15.92991 | 35142 ft | 515 kts | 131° |
| 2026-05-04 11:13 | 43.69224 | 16.00379 | 35150 ft | 515 kts | 131° |
| 2026-05-04 11:13 | 43.64484 | 16.07816 | 35155 ft | 517 kts | 131° |
| 2026-05-04 11:16 | 43.40549 | 16.45084 | 35159 ft | 520 kts | 131° |
| 2026-05-04 11:16 | 43.35763 | 16.52479 | 35158 ft | 521 kts | 131° |
| 2026-05-04 11:17 | 43.30940 | 16.59910 | 35155 ft | 521 kts | 131° |
| 2026-05-04 11:19 | 43.11587 | 16.89541 | 35154 ft | 522 kts | 131° |
| 2026-05-04 11:19 | 43.06722 | 16.96941 | 35161 ft | 523 kts | 131° |
| 2026-05-04 11:20 | 43.01853 | 17.04330 | 35163 ft | 523 kts | 131° |
| 2026-05-04 11:20 | 42.96967 | 17.11725 | 35165 ft | 524 kts | 131° |
| 2026-05-04 11:22 | 42.78159 | 17.40015 | 35179 ft | 526 kts | 131° |
| 2026-05-04 11:23 | 42.73226 | 17.47389 | 35176 ft | 527 kts | 131° |
| 2026-05-04 11:25 | 42.55917 | 17.73117 | 35169 ft | 528 kts | 131° |
| 2026-05-04 11:25 | 42.50940 | 17.80472 | 35176 ft | 529 kts | 131° |
| 2026-05-04 11:27 | 42.28484 | 18.13431 | 35176 ft | 530 kts | 131° |
| 2026-05-04 11:28 | 42.23464 | 18.20748 | 35168 ft | 530 kts | 131° |
| 2026-05-04 11:28 | 42.18447 | 18.28044 | 35167 ft | 530 kts | 131° |
| 2026-05-04 11:29 | 42.13417 | 18.35339 | 35159 ft | 530 kts | 132° |
| 2026-05-04 11:29 | 42.08415 | 18.42576 | 35173 ft | 530 kts | 132° |
| 2026-05-04 11:33 | 41.75054 | 18.95848 | 35163 ft | 534 kts | 127° |
| 2026-05-04 11:33 | 41.70325 | 19.03527 | 35158 ft | 534 kts | 127° |
| 2026-05-04 11:34 | 41.65622 | 19.11146 | 35164 ft | 534 kts | 127° |
| 2026-05-04 11:34 | 41.60880 | 19.18810 | 35168 ft | 534 kts | 127° |
| 2026-05-04 11:35 | 41.56136 | 19.26458 | 35147 ft | 534 kts | 127° |
| 2026-05-04 11:35 | 41.51380 | 19.34106 | 35163 ft | 535 kts | 127° |
| 2026-05-04 11:36 | 41.46628 | 19.41728 | 35151 ft | 535 kts | 127° |
| 2026-05-04 11:36 | 41.41864 | 19.49349 | 35167 ft | 535 kts | 127° |
| 2026-05-04 11:37 | 41.37117 | 19.56924 | 35149 ft | 535 kts | 127° |
| 2026-05-04 11:37 | 41.32330 | 19.64544 | 35145 ft | 535 kts | 127° |
| 2026-05-04 11:38 | 41.27545 | 19.72142 | 35128 ft | 535 kts | 127° |
| 2026-05-04 11:38 | 41.22758 | 19.79725 | 35140 ft | 536 kts | 127° |
| 2026-05-04 11:39 | 41.17958 | 19.87310 | 35125 ft | 537 kts | 127° |
| 2026-05-04 11:41 | 41.01156 | 20.13704 | 35154 ft | 535 kts | 127° |
| 2026-05-04 11:41 | 40.96333 | 20.21240 | 35128 ft | 535 kts | 127° |
| 2026-05-04 11:42 | 40.91514 | 20.28750 | 35130 ft | 535 kts | 127° |
| 2026-05-04 11:42 | 40.86690 | 20.36252 | 35118 ft | 535 kts | 127° |
| 2026-05-04 11:43 | 40.81871 | 20.43726 | 35126 ft | 534 kts | 127° |
| 2026-05-04 11:43 | 40.77049 | 20.51182 | 35130 ft | 533 kts | 127° |
| 2026-05-04 11:44 | 40.72266 | 20.58566 | 35136 ft | 533 kts | 127° |
| 2026-05-04 11:44 | 40.67433 | 20.66009 | 35135 ft | 535 kts | 127° |
| 2026-05-04 11:45 | 40.62570 | 20.73478 | 35125 ft | 537 kts | 128° |
| 2026-05-04 11:45 | 40.57695 | 20.80947 | 35166 ft | 537 kts | 127° |
| 2026-05-04 11:46 | 40.52813 | 20.88412 | 35137 ft | 538 kts | 127° |
| 2026-05-04 11:46 | 40.47888 | 20.95796 | 35126 ft | 538 kts | 131° |
| 2026-05-04 11:47 | 40.42374 | 21.02385 | 35124 ft | 539 kts | 137° |
| 2026-05-04 11:47 | 40.36684 | 21.08807 | 35123 ft | 539 kts | 137° |
| 2026-05-04 11:48 | 40.31016 | 21.15267 | 35165 ft | 539 kts | 136° |
| 2026-05-04 11:48 | 40.25369 | 21.21748 | 35146 ft | 540 kts | 136° |
| 2026-05-04 11:49 | 40.19754 | 21.28186 | 35140 ft | 540 kts | 136° |
| 2026-05-04 11:49 | 40.14092 | 21.34656 | 35137 ft | 540 kts | 136° |
| 2026-05-04 11:50 | 40.08427 | 21.41112 | 35128 ft | 541 kts | 136° |
| 2026-05-04 11:50 | 40.02738 | 21.47581 | 35139 ft | 541 kts | 136° |
| 2026-05-04 11:51 | 39.97074 | 21.54008 | 35143 ft | 542 kts | 136° |
| 2026-05-04 11:51 | 39.91373 | 21.60455 | 35126 ft | 542 kts | 137° |
| 2026-05-04 11:52 | 39.85659 | 21.66898 | 35142 ft | 543 kts | 137° |
| 2026-05-04 11:52 | 39.79933 | 21.73342 | 35139 ft | 544 kts | 137° |
| 2026-05-04 11:53 | 39.74204 | 21.79777 | 35161 ft | 544 kts | 137° |
| 2026-05-04 11:53 | 39.68466 | 21.86208 | 35141 ft | 544 kts | 137° |
| 2026-05-04 11:55 | 39.45553 | 22.11743 | 35140 ft | 544 kts | 137° |
| 2026-05-04 11:56 | 39.39789 | 22.18131 | 35154 ft | 545 kts | 137° |
| 2026-05-04 11:56 | 39.34033 | 22.24494 | 35143 ft | 545 kts | 137° |
| 2026-05-04 11:57 | 39.28306 | 22.30812 | 35146 ft | 545 kts | 137° |
| 2026-05-04 11:57 | 39.22537 | 22.37162 | 35153 ft | 545 kts | 137° |
| 2026-05-04 11:58 | 39.16762 | 22.43504 | 35144 ft | 545 kts | 137° |
| 2026-05-04 11:58 | 39.10983 | 22.49837 | 35135 ft | 545 kts | 138° |
| 2026-05-04 11:59 | 39.05201 | 22.56158 | 35166 ft | 546 kts | 138° |
| 2026-05-04 11:59 | 38.99430 | 22.62455 | 35165 ft | 547 kts | 138° |
| 2026-05-04 12:00 | 38.93617 | 22.68783 | 35160 ft | 547 kts | 138° |
| 2026-05-04 12:00 | 38.87801 | 22.75102 | 35145 ft | 548 kts | 138° |
| 2026-05-04 12:01 | 38.81978 | 22.81410 | 35156 ft | 548 kts | 138° |
| 2026-05-04 12:02 | 38.61578 | 23.03406 | 35161 ft | 548 kts | 138° |
| 2026-05-04 12:03 | 38.55731 | 23.09679 | 35146 ft | 549 kts | 138° |
| 2026-05-04 12:03 | 38.49872 | 23.15953 | 35155 ft | 550 kts | 139° |
| 2026-05-04 12:04 | 38.43999 | 23.22227 | 35153 ft | 550 kts | 139° |
| 2026-05-04 12:04 | 38.38117 | 23.28497 | 35155 ft | 551 kts | 139° |
| 2026-05-04 12:05 | 38.32267 | 23.34720 | 35163 ft | 551 kts | 139° |
| 2026-05-04 12:05 | 38.26373 | 23.40975 | 35151 ft | 551 kts | 139° |
| 2026-05-04 12:06 | 38.20478 | 23.47221 | 35160 ft | 551 kts | 139° |
| 2026-05-04 12:06 | 38.14589 | 23.53442 | 35162 ft | 549 kts | 139° |
| 2026-05-04 12:07 | 38.08746 | 23.59591 | 35159 ft | 547 kts | 139° |
| 2026-05-04 12:07 | 38.02892 | 23.65742 | 35168 ft | 546 kts | 139° |
| 2026-05-04 12:08 | 37.98023 | 23.70851 | 35151 ft | 546 kts | 139° |
| 2026-05-04 12:08 | 37.92161 | 23.76990 | 35185 ft | 547 kts | 139° |
| 2026-05-04 12:09 | 37.86622 | 23.83572 | 35163 ft | 545 kts | 129° |
| 2026-05-04 12:09 | 37.81783 | 23.90936 | 35171 ft | 544 kts | 127° |
| 2026-05-04 12:10 | 37.76949 | 23.98292 | 35155 ft | 543 kts | 128° |
| 2026-05-04 12:10 | 37.72073 | 24.05589 | 35160 ft | 543 kts | 128° |
| 2026-05-04 12:11 | 37.67183 | 24.12858 | 35162 ft | 543 kts | 128° |
| 2026-05-04 12:11 | 37.62288 | 24.20131 | 35153 ft | 543 kts | 128° |
| 2026-05-04 12:12 | 37.57418 | 24.27356 | 35154 ft | 544 kts | 128° |
| 2026-05-04 12:12 | 37.52979 | 24.35067 | 35151 ft | 541 kts | 119° |
| 2026-05-04 12:14 | 37.37080 | 24.67084 | 35147 ft | 537 kts | 120° |
| 2026-05-04 12:15 | 37.33078 | 24.75013 | 35134 ft | 537 kts | 120° |
| 2026-05-04 12:15 | 37.29089 | 24.82912 | 35164 ft | 540 kts | 120° |
| 2026-05-04 12:16 | 37.25045 | 24.90901 | 35149 ft | 544 kts | 120° |
| 2026-05-04 12:16 | 37.20967 | 24.98934 | 35154 ft | 546 kts | 120° |
| 2026-05-04 12:17 | 37.16882 | 25.06964 | 35148 ft | 545 kts | 121° |
| 2026-05-04 12:17 | 37.12807 | 25.14954 | 35155 ft | 542 kts | 121° |
| 2026-05-04 12:18 | 37.08767 | 25.22840 | 35160 ft | 540 kts | 121° |
| 2026-05-04 12:18 | 37.04709 | 25.30739 | 35148 ft | 538 kts | 121° |
| 2026-05-04 12:19 | 37.00664 | 25.38602 | 35143 ft | 536 kts | 121° |
| 2026-05-04 12:19 | 36.96634 | 25.46420 | 35135 ft | 535 kts | 121° |
| 2026-05-04 12:20 | 36.92590 | 25.54246 | 35114 ft | 538 kts | 121° |
| 2026-05-04 12:20 | 36.88475 | 25.62192 | 35124 ft | 547 kts | 121° |
| 2026-05-04 12:21 | 36.84367 | 25.70105 | 35112 ft | 545 kts | 122° |
| 2026-05-04 12:21 | 36.80241 | 25.78031 | 35097 ft | 542 kts | 122° |
| 2026-05-04 12:22 | 36.76135 | 25.85900 | 35094 ft | 539 kts | 122° |
| 2026-05-04 12:22 | 36.72051 | 25.93711 | 35095 ft | 537 kts | 122° |
| 2026-05-04 12:23 | 36.67970 | 26.01500 | 35098 ft | 535 kts | 122° |
| 2026-05-04 12:23 | 36.63917 | 26.09218 | 35094 ft | 535 kts | 122° |
| 2026-05-04 12:24 | 36.59833 | 26.16981 | 35088 ft | 536 kts | 122° |
| 2026-05-04 12:24 | 36.55832 | 26.24806 | 35087 ft | 536 kts | 117° |
| 2026-05-04 12:25 | 36.52503 | 26.33105 | 35072 ft | 537 kts | 114° |
| 2026-05-04 12:25 | 36.49224 | 26.41491 | 35077 ft | 541 kts | 114° |
| 2026-05-04 12:26 | 36.45899 | 26.49841 | 35077 ft | 543 kts | 115° |
| 2026-05-04 12:26 | 36.42516 | 26.58246 | 35086 ft | 544 kts | 115° |
| 2026-05-04 12:27 | 36.39135 | 26.66635 | 35059 ft | 542 kts | 115° |
| 2026-05-04 12:27 | 36.35766 | 26.74981 | 35049 ft | 540 kts | 115° |
| 2026-05-04 12:28 | 36.32383 | 26.83288 | 35053 ft | 537 kts | 116° |
| 2026-05-04 12:28 | 36.29002 | 26.91539 | 35058 ft | 535 kts | 116° |
| 2026-05-04 12:29 | 36.25629 | 26.99758 | 35043 ft | 534 kts | 116° |
| 2026-05-04 12:29 | 36.22261 | 27.07952 | 35047 ft | 533 kts | 116° |
| 2026-05-04 12:30 | 36.18910 | 27.16088 | 35042 ft | 533 kts | 116° |
| 2026-05-04 12:30 | 36.15529 | 27.24275 | 35039 ft | 534 kts | 116° |
| 2026-05-04 12:31 | 36.12129 | 27.32488 | 35035 ft | 535 kts | 116° |
| 2026-05-04 12:31 | 36.08727 | 27.40692 | 35028 ft | 536 kts | 116° |
| 2026-05-04 12:32 | 36.03629 | 27.52999 | 35019 ft | 536 kts | 116° |
| 2026-05-04 12:33 | 36.00241 | 27.61158 | 34992 ft | 536 kts | 116° |
| 2026-05-04 12:33 | 35.96793 | 27.69330 | 35006 ft | 538 kts | 119° |
| 2026-05-04 12:34 | 35.92590 | 27.77027 | 35005 ft | 541 kts | 126° |
| 2026-05-04 12:34 | 35.88148 | 27.84478 | 34997 ft | 544 kts | 126° |
| 2026-05-04 12:35 | 35.83688 | 27.92031 | 34996 ft | 545 kts | 126° |
| 2026-05-04 12:35 | 35.79256 | 27.99609 | 34994 ft | 545 kts | 126° |
| 2026-05-04 12:36 | 35.74829 | 28.07175 | 35001 ft | 544 kts | 126° |
| 2026-05-04 12:36 | 35.70402 | 28.14712 | 34989 ft | 542 kts | 126° |
| 2026-05-04 12:37 | 35.65984 | 28.22216 | 34980 ft | 540 kts | 126° |
| 2026-05-04 12:37 | 35.61608 | 28.29631 | 34985 ft | 539 kts | 126° |
| 2026-05-04 12:38 | 35.57189 | 28.37085 | 34979 ft | 540 kts | 127° |
| 2026-05-04 12:38 | 35.52751 | 28.44558 | 34980 ft | 543 kts | 127° |
| 2026-05-04 12:39 | 35.48283 | 28.52069 | 34980 ft | 546 kts | 127° |
| 2026-05-04 12:39 | 35.43795 | 28.59599 | 34974 ft | 547 kts | 127° |
| 2026-05-04 12:40 | 35.39300 | 28.67126 | 34972 ft | 548 kts | 127° |
| 2026-05-04 12:40 | 35.34827 | 28.74599 | 34965 ft | 546 kts | 127° |
| 2026-05-04 12:41 | 35.30334 | 28.82089 | 34956 ft | 544 kts | 127° |
| 2026-05-04 12:41 | 35.25851 | 28.89547 | 34957 ft | 543 kts | 127° |
| 2026-05-04 12:42 | 35.21376 | 28.96974 | 34964 ft | 541 kts | 128° |
| 2026-05-04 12:42 | 35.16896 | 29.04397 | 34947 ft | 543 kts | 128° |
| 2026-05-04 12:43 | 35.12420 | 29.11794 | 34958 ft | 546 kts | 128° |
| 2026-05-04 12:43 | 35.07888 | 29.19272 | 34955 ft | 549 kts | 128° |
| 2026-05-04 12:44 | 35.03331 | 29.26776 | 34955 ft | 550 kts | 129° |
| 2026-05-04 12:44 | 34.99039 | 29.34541 | 34941 ft | 552 kts | 121° |
| 2026-05-04 12:45 | 34.95796 | 29.43041 | 34948 ft | 552 kts | 113° |
| 2026-05-04 12:45 | 34.92862 | 29.51680 | 34940 ft | 551 kts | 113° |
| 2026-05-04 12:46 | 34.89896 | 29.60230 | 34929 ft | 551 kts | 114° |
| 2026-05-04 12:46 | 34.86864 | 29.68821 | 34939 ft | 552 kts | 114° |
| 2026-05-04 12:47 | 34.83820 | 29.77413 | 34933 ft | 553 kts | 114° |
| 2026-05-04 12:47 | 34.80771 | 29.86016 | 34932 ft | 554 kts | 115° |
| 2026-05-04 12:48 | 34.77709 | 29.94640 | 34927 ft | 555 kts | 115° |
| 2026-05-04 12:48 | 34.74238 | 30.02994 | 34922 ft | 552 kts | 125° |
| 2026-05-04 12:49 | 34.69881 | 30.10654 | 34924 ft | 551 kts | 128° |
| 2026-05-04 12:49 | 34.65473 | 30.18277 | 34892 ft | 552 kts | 128° |
| 2026-05-04 12:50 | 34.61090 | 30.25954 | 34923 ft | 554 kts | 128° |
| 2026-05-04 12:50 | 34.56735 | 30.33625 | 34934 ft | 556 kts | 128° |
| 2026-05-04 12:51 | 34.52327 | 30.41376 | 34929 ft | 558 kts | 128° |
| 2026-05-04 12:51 | 34.47904 | 30.49126 | 34932 ft | 559 kts | 128° |
| 2026-05-04 12:52 | 34.43463 | 30.56890 | 34922 ft | 559 kts | 129° |
| 2026-05-04 12:52 | 34.39059 | 30.64570 | 34924 ft | 558 kts | 129° |
| 2026-05-04 12:53 | 34.34623 | 30.72292 | 34920 ft | 557 kts | 129° |
| 2026-05-04 12:53 | 34.30192 | 30.79987 | 34931 ft | 557 kts | 129° |
| 2026-05-04 12:54 | 34.25765 | 30.87663 | 34923 ft | 556 kts | 129° |
| 2026-05-04 12:54 | 34.21333 | 30.95321 | 34924 ft | 556 kts | 129° |
| 2026-05-04 12:55 | 34.16887 | 31.02975 | 34920 ft | 556 kts | 129° |
| 2026-05-04 12:55 | 34.12441 | 31.10615 | 34931 ft | 556 kts | 129° |
| 2026-05-04 12:56 | 34.08016 | 31.18206 | 34931 ft | 557 kts | 129° |
| 2026-05-04 12:56 | 34.03552 | 31.25850 | 34915 ft | 557 kts | 130° |
| 2026-05-04 12:57 | 33.99086 | 31.33483 | 34936 ft | 558 kts | 130° |
| 2026-05-04 12:57 | 33.95362 | 31.39833 | 34924 ft | 558 kts | 130° |
| 2026-05-04 12:58 | 33.90872 | 31.47477 | 34924 ft | 558 kts | 130° |
| 2026-05-04 12:58 | 33.86377 | 31.55113 | 34937 ft | 558 kts | 130° |
| 2026-05-04 12:59 | 33.81903 | 31.62700 | 34938 ft | 558 kts | 130° |
| 2026-05-04 12:59 | 33.77418 | 31.70332 | 34932 ft | 559 kts | 130° |
| 2026-05-04 13:00 | 33.72995 | 31.78063 | 34935 ft | 562 kts | 129° |
| 2026-05-04 13:00 | 33.68570 | 31.85839 | 34935 ft | 563 kts | 129° |
| 2026-05-04 13:01 | 33.64153 | 31.93548 | 34936 ft | 564 kts | 130° |
| 2026-05-04 13:01 | 33.59689 | 32.01301 | 34940 ft | 564 kts | 130° |
| 2026-05-04 13:02 | 33.55223 | 32.09039 | 34931 ft | 563 kts | 130° |
| 2026-05-04 13:02 | 33.50761 | 32.16755 | 34940 ft | 562 kts | 130° |
| 2026-05-04 13:03 | 33.46305 | 32.24446 | 34942 ft | 561 kts | 130° |
| 2026-05-04 13:03 | 33.41852 | 32.32115 | 34948 ft | 560 kts | 130° |
| 2026-05-04 13:04 | 33.37423 | 32.39728 | 34939 ft | 559 kts | 130° |
| 2026-05-04 13:04 | 33.32972 | 32.47363 | 34932 ft | 558 kts | 131° |
| 2026-05-04 13:05 | 33.28520 | 32.54982 | 34944 ft | 559 kts | 131° |
| 2026-05-04 13:05 | 33.24055 | 32.62607 | 34939 ft | 560 kts | 131° |
| 2026-05-04 13:06 | 33.19592 | 32.70216 | 34952 ft | 560 kts | 131° |
| 2026-05-04 13:06 | 33.15112 | 32.77838 | 34957 ft | 560 kts | 131° |
| 2026-05-04 13:07 | 33.10662 | 32.85397 | 34958 ft | 560 kts | 131° |
| 2026-05-04 13:07 | 33.06189 | 32.92988 | 34952 ft | 559 kts | 132° |
| 2026-05-04 13:08 | 33.01727 | 33.00572 | 34965 ft | 558 kts | 132° |
| 2026-05-04 13:08 | 32.97271 | 33.08135 | 34964 ft | 557 kts | 132° |
| 2026-05-04 13:09 | 32.92806 | 33.15693 | 34962 ft | 557 kts | 132° |
| 2026-05-04 13:09 | 32.88354 | 33.23215 | 34953 ft | 555 kts | 133° |
| 2026-05-04 13:10 | 32.83908 | 33.30710 | 34974 ft | 554 kts | 133° |
| 2026-05-04 13:10 | 32.79458 | 33.38193 | 34981 ft | 554 kts | 133° |
| 2026-05-04 13:11 | 32.75005 | 33.45668 | 34978 ft | 554 kts | 133° |
| 2026-05-04 13:11 | 32.70543 | 33.53145 | 34975 ft | 554 kts | 133° |
| 2026-05-04 13:12 | 32.66074 | 33.60619 | 34988 ft | 555 kts | 133° |
| 2026-05-04 13:12 | 32.61630 | 33.68037 | 34990 ft | 555 kts | 133° |
| 2026-05-04 13:13 | 32.57147 | 33.75505 | 34975 ft | 555 kts | 133° |
| 2026-05-04 13:13 | 32.52673 | 33.82943 | 34987 ft | 555 kts | 133° |
| 2026-05-04 13:14 | 32.48185 | 33.90389 | 34993 ft | 555 kts | 133° |
| 2026-05-04 13:14 | 32.43724 | 33.97779 | 34942 ft | 554 kts | 133° |
| 2026-05-04 13:15 | 32.39249 | 34.05181 | 35001 ft | 552 kts | 133° |
| 2026-05-04 13:15 | 32.35256 | 34.13010 | 35011 ft | 562 kts | 123° |
| 2026-05-04 13:16 | 32.31830 | 34.21334 | 35003 ft | 562 kts | 123° |
| 2026-05-04 13:16 | 32.28336 | 34.29602 | 35008 ft | 561 kts | 124° |
| 2026-05-04 13:17 | 32.24820 | 34.37829 | 35012 ft | 561 kts | 124° |
| 2026-05-04 13:17 | 32.21308 | 34.46056 | 35016 ft | 561 kts | 124° |
| 2026-05-04 13:18 | 32.17904 | 34.54275 | 35015 ft | 564 kts | 119° |
| 2026-05-04 13:18 | 32.15415 | 34.63126 | 35022 ft | 573 kts | 108° |
| 2026-05-04 13:19 | 32.13949 | 34.72414 | 35032 ft | 575 kts | 104° |
| 2026-05-04 13:19 | 32.12507 | 34.81677 | 35024 ft | 574 kts | 106° |
| 2026-05-04 13:20 | 32.10881 | 34.90889 | 35024 ft | 570 kts | 110° |
| 2026-05-04 13:20 | 32.08433 | 34.99710 | 34997 ft | 565 kts | 116° |
| 2026-05-04 13:21 | 32.05839 | 35.08430 | 35031 ft | 564 kts | 116° |
| 2026-05-04 13:21 | 32.03334 | 35.17126 | 35038 ft | 563 kts | 115° |
| 2026-05-04 13:22 | 32.00755 | 35.25842 | 35048 ft | 562 kts | 117° |
| 2026-05-04 13:22 | 31.98206 | 35.34580 | 35028 ft | 564 kts | 115° |
| 2026-05-04 13:23 | 31.95710 | 35.43371 | 35048 ft | 566 kts | 115° |
| 2026-05-04 13:23 | 31.93781 | 35.52445 | 35024 ft | 578 kts | 104° |
| 2026-05-04 13:24 | 31.92456 | 35.61755 | 35047 ft | 575 kts | 109° |
| 2026-05-04 13:24 | 31.90314 | 35.70727 | 35049 ft | 569 kts | 117° |
| 2026-05-04 13:25 | 31.86917 | 35.78974 | 35039 ft | 554 kts | 128° |
| 2026-05-04 13:25 | 31.85011 | 35.82909 | 35047 ft | 553 kts | 128° |
| 2026-05-04 13:25 | 31.81343 | 35.90862 | 35053 ft | 554 kts | 125° |
| 2026-05-04 13:26 | 31.77934 | 35.98997 | 35052 ft | 554 kts | 123° |
| 2026-05-04 13:26 | 31.74654 | 36.07131 | 35058 ft | 553 kts | 123° |
| 2026-05-04 13:27 | 31.71347 | 36.15295 | 35050 ft | 552 kts | 123° |
| 2026-05-04 13:27 | 31.68011 | 36.23435 | 35053 ft | 552 kts | 124° |
| 2026-05-04 13:28 | 31.64684 | 36.31509 | 35037 ft | 552 kts | 124° |
| 2026-05-04 13:28 | 31.61331 | 36.39627 | 35032 ft | 552 kts | 124° |
| 2026-05-04 13:29 | 31.57980 | 36.47732 | 35035 ft | 552 kts | 124° |
| 2026-05-04 13:29 | 31.54618 | 36.55846 | 35019 ft | 553 kts | 124° |
| 2026-05-04 13:30 | 31.51244 | 36.63969 | 35028 ft | 554 kts | 124° |
| 2026-05-04 13:30 | 31.47865 | 36.72087 | 35015 ft | 555 kts | 124° |
| 2026-05-04 13:31 | 31.44492 | 36.80173 | 35004 ft | 556 kts | 124° |
| 2026-05-04 13:31 | 31.41081 | 36.88332 | 35001 ft | 557 kts | 124° |
| 2026-05-04 13:32 | 31.37665 | 36.96486 | 35014 ft | 558 kts | 124° |
| 2026-05-04 13:32 | 31.34241 | 37.04642 | 34998 ft | 557 kts | 124° |
| 2026-05-04 13:33 | 31.30825 | 37.12762 | 35001 ft | 556 kts | 124° |
| 2026-05-04 13:33 | 31.27414 | 37.20851 | 34998 ft | 556 kts | 124° |
| 2026-05-04 13:34 | 31.24349 | 37.29218 | 35000 ft | 563 kts | 116° |
| 2026-05-04 13:34 | 31.21849 | 37.37892 | 34995 ft | 563 kts | 116° |
| 2026-05-04 13:35 | 31.18035 | 37.50786 | 34978 ft | 561 kts | 116° |
| 2026-05-04 13:36 | 31.15433 | 37.59385 | 34994 ft | 562 kts | 116° |
| 2026-05-04 13:36 | 31.12818 | 37.67990 | 35000 ft | 563 kts | 117° |
| 2026-05-04 13:37 | 31.10188 | 37.76596 | 34986 ft | 564 kts | 117° |
| 2026-05-04 13:37 | 31.07545 | 37.85228 | 34995 ft | 565 kts | 117° |
| 2026-05-04 13:38 | 31.04895 | 37.93867 | 35001 ft | 566 kts | 117° |
| 2026-05-04 13:38 | 31.02239 | 38.02508 | 34994 ft | 565 kts | 117° |
| 2026-05-04 13:39 | 30.99582 | 38.11127 | 34995 ft | 565 kts | 117° |
| 2026-05-04 13:39 | 30.96919 | 38.19739 | 34958 ft | 564 kts | 117° |
| 2026-05-04 13:40 | 30.94255 | 38.28330 | 34996 ft | 563 kts | 117° |
| 2026-05-04 13:40 | 30.91589 | 38.36907 | 35007 ft | 562 kts | 117° |
| 2026-05-04 13:41 | 30.88940 | 38.45404 | 35000 ft | 561 kts | 117° |
| 2026-05-04 13:41 | 30.86275 | 38.53931 | 35011 ft | 560 kts | 117° |
| 2026-05-04 13:42 | 30.82267 | 38.66714 | 34970 ft | 560 kts | 117° |
| 2026-05-04 13:42 | 30.79591 | 38.75218 | 35003 ft | 559 kts | 117° |
| 2026-05-04 13:43 | 30.76435 | 38.83395 | 35016 ft | 550 kts | 124° |
| 2026-05-04 13:43 | 30.72967 | 38.91331 | 34984 ft | 550 kts | 124° |
| 2026-05-04 13:44 | 30.70098 | 38.97917 | 35023 ft | 549 kts | 124° |
| 2026-05-04 13:44 | 30.66681 | 39.05845 | 35023 ft | 548 kts | 124° |
| 2026-05-04 13:45 | 30.63297 | 39.13729 | 35000 ft | 547 kts | 124° |
| 2026-05-04 13:45 | 30.59896 | 39.21633 | 35013 ft | 546 kts | 124° |
| 2026-05-04 13:46 | 30.56509 | 39.29476 | 35019 ft | 545 kts | 124° |
| 2026-05-04 13:46 | 30.53101 | 39.37349 | 35005 ft | 545 kts | 124° |
| 2026-05-04 13:47 | 30.49690 | 39.45213 | 35014 ft | 546 kts | 124° |
| 2026-05-04 13:47 | 30.46272 | 39.53080 | 35011 ft | 547 kts | 124° |
| 2026-05-04 13:48 | 30.42843 | 39.60958 | 35000 ft | 548 kts | 124° |
| 2026-05-04 13:48 | 30.39476 | 39.68829 | 35002 ft | 550 kts | 123° |
| 2026-05-04 13:49 | 30.36290 | 39.76922 | 34998 ft | 553 kts | 121° |
| 2026-05-04 13:49 | 30.33134 | 39.85036 | 34986 ft | 553 kts | 122° |
| 2026-05-04 13:50 | 30.29930 | 39.93132 | 34995 ft | 552 kts | 122° |
| 2026-05-04 13:50 | 30.26704 | 40.01200 | 34983 ft | 552 kts | 122° |
| 2026-05-04 13:51 | 30.23471 | 40.09267 | 34970 ft | 552 kts | 122° |
| 2026-05-04 13:51 | 30.20262 | 40.17268 | 34977 ft | 552 kts | 122° |
| 2026-05-04 13:52 | 30.15410 | 40.29342 | 34955 ft | 552 kts | 122° |
| 2026-05-04 13:53 | 30.12170 | 40.37381 | 34965 ft | 551 kts | 122° |
| 2026-05-04 13:53 | 30.08916 | 40.45412 | 34965 ft | 552 kts | 123° |
| 2026-05-04 13:54 | 30.04044 | 40.57377 | 34942 ft | 550 kts | 123° |
| 2026-05-04 13:55 | 29.99149 | 40.69369 | 34948 ft | 549 kts | 123° |
| 2026-05-04 13:55 | 29.94258 | 40.81318 | 34949 ft | 549 kts | 123° |
| 2026-05-04 13:56 | 29.90986 | 40.89291 | 34944 ft | 549 kts | 123° |
| 2026-05-04 13:57 | 29.86106 | 41.01153 | 34939 ft | 548 kts | 123° |
| 2026-05-04 13:58 | 29.79574 | 41.16971 | 34926 ft | 546 kts | 123° |
| 2026-05-04 13:58 | 29.74556 | 41.28637 | 34929 ft | 537 kts | 129° |
| 2026-05-04 13:59 | 29.70285 | 41.35551 | 34883 ft | 523 kts | 140° |
| 2026-05-04 14:00 | 29.62990 | 41.44684 | 34920 ft | 520 kts | 142° |
| 2026-05-04 14:00 | 29.55656 | 41.53920 | 34923 ft | 522 kts | 141° |
| 2026-05-04 14:01 | 29.50777 | 41.60104 | 34908 ft | 522 kts | 141° |
| 2026-05-04 14:02 | 29.43469 | 41.69348 | 34916 ft | 524 kts | 141° |
| 2026-05-04 14:02 | 29.38557 | 41.75544 | 34909 ft | 524 kts | 141° |
| 2026-05-04 14:03 | 29.33639 | 41.81739 | 34895 ft | 524 kts | 141° |
| 2026-05-04 14:03 | 29.28724 | 41.87920 | 34884 ft | 525 kts | 141° |
| 2026-05-04 14:04 | 29.21375 | 41.97144 | 34894 ft | 524 kts | 141° |
| 2026-05-04 14:04 | 29.16450 | 42.03314 | 34883 ft | 524 kts | 141° |
| 2026-05-04 14:05 | 29.09066 | 42.12548 | 34893 ft | 524 kts | 141° |
| 2026-05-04 14:06 | 29.04135 | 42.18703 | 34887 ft | 525 kts | 142° |
| 2026-05-04 14:06 | 28.99193 | 42.24861 | 34880 ft | 525 kts | 142° |
| 2026-05-04 14:07 | 28.94249 | 42.31016 | 34882 ft | 525 kts | 142° |
| 2026-05-04 14:07 | 28.89305 | 42.37163 | 34877 ft | 526 kts | 142° |
| 2026-05-04 14:08 | 28.84393 | 42.43263 | 34868 ft | 526 kts | 142° |
| 2026-05-04 14:08 | 28.79435 | 42.49411 | 34876 ft | 526 kts | 142° |
| 2026-05-04 14:09 | 28.71985 | 42.58629 | 34883 ft | 527 kts | 142° |
| 2026-05-04 14:10 | 28.64530 | 42.67837 | 34890 ft | 527 kts | 142° |
| 2026-05-04 14:10 | 28.59575 | 42.73929 | 34895 ft | 527 kts | 142° |
| 2026-05-04 14:11 | 28.54593 | 42.80034 | 34897 ft | 527 kts | 142° |
| 2026-05-04 14:11 | 28.47093 | 42.89218 | 34898 ft | 527 kts | 142° |
| 2026-05-04 14:12 | 28.42099 | 42.95324 | 34893 ft | 527 kts | 142° |
| 2026-05-04 14:13 | 28.34596 | 43.04477 | 34885 ft | 528 kts | 142° |
| 2026-05-04 14:13 | 28.29582 | 43.10583 | 34901 ft | 529 kts | 142° |
| 2026-05-04 14:14 | 28.24583 | 43.16663 | 34897 ft | 530 kts | 142° |
| 2026-05-04 14:14 | 28.17018 | 43.25846 | 34882 ft | 532 kts | 142° |
| 2026-05-04 14:15 | 28.06902 | 43.38096 | 34899 ft | 533 kts | 142° |
| 2026-05-04 14:16 | 27.99301 | 43.47278 | 34898 ft | 532 kts | 142° |
| 2026-05-04 14:17 | 27.91699 | 43.56439 | 34896 ft | 532 kts | 142° |
| 2026-05-04 14:18 | 27.84127 | 43.65545 | 34881 ft | 531 kts | 143° |
| 2026-05-04 14:19 | 27.73600 | 43.77050 | 34885 ft | 525 kts | 146° |
| 2026-05-04 14:19 | 27.68287 | 43.82742 | 34888 ft | 525 kts | 146° |
| 2026-05-04 14:20 | 27.63017 | 43.88453 | 34884 ft | 525 kts | 146° |
| 2026-05-04 14:20 | 27.57761 | 43.94162 | 34885 ft | 525 kts | 146° |
| 2026-05-04 14:21 | 27.49893 | 44.02683 | 34881 ft | 525 kts | 146° |
| 2026-05-04 14:21 | 27.44628 | 44.08372 | 34878 ft | 524 kts | 146° |
| 2026-05-04 14:22 | 27.39369 | 44.14045 | 34876 ft | 524 kts | 146° |
| 2026-05-04 14:22 | 27.34107 | 44.19714 | 34877 ft | 524 kts | 146° |
| 2026-05-04 14:23 | 27.26206 | 44.28214 | 34851 ft | 523 kts | 146° |
| 2026-05-04 14:24 | 27.20976 | 44.33833 | 34869 ft | 523 kts | 146° |
| 2026-05-04 14:24 | 27.15711 | 44.39479 | 34872 ft | 523 kts | 146° |
| 2026-05-04 14:25 | 27.10444 | 44.45108 | 34867 ft | 523 kts | 145° |
| 2026-05-04 14:25 | 27.02526 | 44.53564 | 34871 ft | 523 kts | 145° |
| 2026-05-04 14:26 | 26.97272 | 44.59167 | 34871 ft | 524 kts | 145° |
| 2026-05-04 14:26 | 26.91983 | 44.64817 | 34863 ft | 525 kts | 145° |
| 2026-05-04 14:27 | 26.86696 | 44.70461 | 34860 ft | 525 kts | 145° |
| 2026-05-04 14:27 | 26.81398 | 44.76109 | 34875 ft | 525 kts | 145° |
| 2026-05-04 14:28 | 26.76091 | 44.81757 | 34899 ft | 526 kts | 145° |
| 2026-05-04 14:28 | 26.70807 | 44.87347 | 34878 ft | 526 kts | 145° |
| 2026-05-04 14:29 | 26.60161 | 44.98584 | 34878 ft | 526 kts | 145° |
| 2026-05-04 14:30 | 26.54847 | 45.04187 | 34872 ft | 525 kts | 144° |
| 2026-05-04 14:31 | 26.46880 | 45.12581 | 34882 ft | 524 kts | 144° |
| 2026-05-04 14:32 | 26.37178 | 45.22784 | 34878 ft | 523 kts | 144° |
| 2026-05-04 14:32 | 26.31886 | 45.28339 | 34886 ft | 523 kts | 144° |
| 2026-05-04 14:33 | 26.26585 | 45.33890 | 34887 ft | 523 kts | 144° |
| 2026-05-04 14:33 | 26.23943 | 45.36652 | 34603 ft | 518 kts | 144° |
| 2026-05-04 14:33 | 26.21318 | 45.39395 | 34002 ft | 515 kts | 144° |
| 2026-05-04 14:33 | 26.18710 | 45.42116 | 33288 ft | 513 kts | 144° |
| 2026-05-04 14:34 | 26.16114 | 45.44825 | 32635 ft | 510 kts | 144° |
| 2026-05-04 14:34 | 26.13539 | 45.47516 | 32086 ft | 505 kts | 144° |
| 2026-05-04 14:34 | 26.11041 | 45.50132 | 31806 ft | 495 kts | 144° |
| 2026-05-04 14:34 | 26.08563 | 45.52729 | 31568 ft | 483 kts | 144° |
| 2026-05-04 14:35 | 26.06137 | 45.55268 | 31379 ft | 472 kts | 144° |
| 2026-05-04 14:35 | 26.03768 | 45.57744 | 31114 ft | 464 kts | 144° |
| 2026-05-04 14:35 | 26.01423 | 45.60185 | 30709 ft | 459 kts | 144° |
| 2026-05-04 14:35 | 25.99091 | 45.62610 | 30211 ft | 458 kts | 144° |
| 2026-05-04 14:36 | 25.96771 | 45.65020 | 29667 ft | 457 kts | 144° |
| 2026-05-04 14:36 | 25.94454 | 45.67429 | 29155 ft | 454 kts | 144° |
| 2026-05-04 14:36 | 25.92177 | 45.69803 | 28645 ft | 442 kts | 143° |
| 2026-05-04 14:36 | 25.89952 | 45.72122 | 27801 ft | 435 kts | 143° |
| 2026-05-04 14:37 | 25.87776 | 45.74383 | 26849 ft | 431 kts | 143° |
| 2026-05-04 14:37 | 25.85596 | 45.76644 | 25947 ft | 426 kts | 143° |
| 2026-05-04 14:37 | 25.83444 | 45.78872 | 25120 ft | 420 kts | 143° |
| 2026-05-04 14:37 | 25.81320 | 45.81069 | 24326 ft | 414 kts | 142° |
| 2026-05-04 14:38 | 25.79225 | 45.83235 | 23565 ft | 409 kts | 142° |
| 2026-05-04 14:38 | 25.77160 | 45.85368 | 22673 ft | 403 kts | 142° |
| 2026-05-04 14:38 | 25.75128 | 45.87468 | 21857 ft | 393 kts | 142° |
| 2026-05-04 14:38 | 25.73150 | 45.89511 | 20947 ft | 383 kts | 141° |
| 2026-05-04 14:39 | 25.71191 | 45.91531 | 20073 ft | 388 kts | 141° |
| 2026-05-04 14:39 | 25.69215 | 45.93564 | 19675 ft | 385 kts | 141° |
| 2026-05-04 14:39 | 25.67269 | 45.95573 | 19416 ft | 378 kts | 141° |
| 2026-05-04 14:40 | 25.63473 | 45.99493 | 18746 ft | 371 kts | 140° |
| 2026-05-04 14:40 | 25.61593 | 46.01435 | 18346 ft | 369 kts | 140° |
| 2026-05-04 14:40 | 25.59750 | 46.03346 | 17938 ft | 367 kts | 140° |
| 2026-05-04 14:40 | 25.57899 | 46.05280 | 17536 ft | 364 kts | 139° |
| 2026-05-04 14:41 | 25.56062 | 46.07210 | 17121 ft | 362 kts | 139° |
| 2026-05-04 14:41 | 25.54245 | 46.09132 | 16707 ft | 360 kts | 139° |
| 2026-05-04 14:41 | 25.50659 | 46.12959 | 15893 ft | 356 kts | 138° |
| 2026-05-04 14:42 | 25.47157 | 46.16745 | 14897 ft | 345 kts | 137° |
| 2026-05-04 14:42 | 25.45448 | 46.18610 | 14122 ft | 345 kts | 138° |
| 2026-05-04 14:42 | 25.43750 | 46.20476 | 13354 ft | 343 kts | 137° |
| 2026-05-04 14:43 | 25.42075 | 46.22328 | 12631 ft | 339 kts | 137° |
| 2026-05-04 14:43 | 25.40418 | 46.24171 | 11956 ft | 334 kts | 136° |
| 2026-05-04 14:43 | 25.38830 | 46.25950 | 11447 ft | 324 kts | 136° |
| 2026-05-04 14:43 | 25.37274 | 46.27709 | 10989 ft | 315 kts | 136° |
| 2026-05-04 14:44 | 25.35748 | 46.29392 | 10538 ft | 305 kts | 142° |
| 2026-05-04 14:44 | 25.33958 | 46.30556 | 10136 ft | 298 kts | 158° |
| 2026-05-04 14:44 | 25.31993 | 46.31406 | 10009 ft | 304 kts | 161° |
| 2026-05-04 14:44 | 25.30001 | 46.32195 | 9900 ft | 303 kts | 162° |
| 2026-05-04 14:45 | 25.28031 | 46.32957 | 9882 ft | 298 kts | 162° |
| 2026-05-04 14:45 | 25.26068 | 46.33708 | 9880 ft | 298 kts | 162° |
| 2026-05-04 14:45 | 25.24104 | 46.34460 | 9892 ft | 300 kts | 162° |
| 2026-05-04 14:45 | 25.22129 | 46.35214 | 9887 ft | 301 kts | 162° |
| 2026-05-04 14:46 | 25.20148 | 46.35970 | 9892 ft | 301 kts | 162° |
| 2026-05-04 14:46 | 25.18185 | 46.36713 | 9895 ft | 302 kts | 162° |
| 2026-05-04 14:46 | 25.16193 | 46.37469 | 9889 ft | 302 kts | 162° |
| 2026-05-04 14:46 | 25.14206 | 46.38222 | 9889 ft | 302 kts | 162° |
| 2026-05-04 14:47 | 25.12234 | 46.39005 | 9895 ft | 302 kts | 159° |
| 2026-05-04 14:47 | 25.10298 | 46.39914 | 9893 ft | 301 kts | 156° |
| 2026-05-04 14:47 | 25.08417 | 46.40945 | 9880 ft | 302 kts | 154° |
| 2026-05-04 14:47 | 25.06564 | 46.42018 | 9861 ft | 299 kts | 153° |
| 2026-05-04 14:48 | 25.04734 | 46.43087 | 9502 ft | 298 kts | 153° |
| 2026-05-04 14:48 | 25.02894 | 46.44168 | 9157 ft | 300 kts | 153° |
| 2026-05-04 14:48 | 25.01073 | 46.45238 | 8952 ft | 299 kts | 153° |
| 2026-05-04 14:48 | 24.99284 | 46.46403 | 8744 ft | 298 kts | 148° |
| 2026-05-04 14:49 | 24.97550 | 46.47660 | 8493 ft | 298 kts | 147° |
| 2026-05-04 14:49 | 24.95823 | 46.48927 | 8283 ft | 297 kts | 148° |
| 2026-05-04 14:49 | 24.94081 | 46.50144 | 8031 ft | 297 kts | 149° |
| 2026-05-04 14:49 | 24.92330 | 46.51310 | 7955 ft | 291 kts | 149° |
| 2026-05-04 14:50 | 24.90588 | 46.52448 | 7900 ft | 288 kts | 150° |
| 2026-05-04 14:50 | 24.88902 | 46.53548 | 7888 ft | 279 kts | 150° |
| 2026-05-04 14:50 | 24.87242 | 46.54632 | 7885 ft | 276 kts | 150° |
| 2026-05-04 14:50 | 24.85594 | 46.55709 | 7886 ft | 276 kts | 150° |
| 2026-05-04 14:51 | 24.83945 | 46.56788 | 7895 ft | 276 kts | 150° |
| 2026-05-04 14:51 | 24.82294 | 46.57873 | 7893 ft | 277 kts | 150° |
| 2026-05-04 14:51 | 24.80635 | 46.58975 | 7893 ft | 278 kts | 150° |
| 2026-05-04 14:51 | 24.79003 | 46.60064 | 7893 ft | 279 kts | 150° |
| 2026-05-04 14:52 | 24.77340 | 46.61177 | 7891 ft | 279 kts | 150° |
| 2026-05-04 14:52 | 24.75680 | 46.62289 | 7886 ft | 279 kts | 150° |
| 2026-05-04 14:52 | 24.74027 | 46.63396 | 7714 ft | 278 kts | 150° |
| 2026-05-04 14:52 | 24.72382 | 46.64497 | 7433 ft | 276 kts | 150° |
| 2026-05-04 14:53 | 24.70766 | 46.65585 | 7016 ft | 269 kts | 150° |
| 2026-05-04 14:53 | 24.69228 | 46.66733 | 6434 ft | 268 kts | 145° |
| 2026-05-04 14:53 | 24.67773 | 46.67969 | 6064 ft | 258 kts | 140° |
| 2026-05-04 14:53 | 24.66572 | 46.69358 | 5768 ft | 246 kts | 124° |
| 2026-05-04 14:54 | 24.65716 | 46.70957 | 5424 ft | 237 kts | 120° |
| 2026-05-04 14:54 | 24.65090 | 46.72601 | 5026 ft | 231 kts | 101° |
| 2026-05-04 14:54 | 24.64872 | 46.74333 | 4661 ft | 223 kts | 96° |
| 2026-05-04 14:54 | 24.64705 | 46.76030 | 4707 ft | 230 kts | 96° |
| 2026-05-04 14:55 | 24.64585 | 46.77793 | 4692 ft | 236 kts | 90° |
| 2026-05-04 14:55 | 24.64711 | 46.79581 | 4676 ft | 234 kts | 76° |
| 2026-05-04 14:55 | 24.65213 | 46.81271 | 4668 ft | 231 kts | 66° |
| 2026-05-04 14:55 | 24.65865 | 46.82890 | 4668 ft | 231 kts | 64° |
| 2026-05-04 14:56 | 24.66565 | 46.84548 | 4702 ft | 255 kts | 62° |
| 2026-05-04 14:56 | 24.67558 | 46.86244 | 4688 ft | 261 kts | 49° |
| 2026-05-04 14:56 | 24.68926 | 46.87414 | 4658 ft | 242 kts | 18° |
| 2026-05-04 14:56 | 24.70535 | 46.87643 | 4525 ft | 232 kts | 347° |
| 2026-05-04 14:57 | 24.72011 | 46.87049 | 4498 ft | 223 kts | 333° |
| 2026-05-04 14:57 | 24.73392 | 46.86300 | 4449 ft | 219 kts | 330° |
| 2026-05-04 14:57 | 24.74685 | 46.85463 | 4466 ft | 212 kts | 326° |
| 2026-05-04 14:57 | 24.75880 | 46.84557 | 4426 ft | 206 kts | 323° |
| 2026-05-04 14:58 | 24.77049 | 46.83636 | 4229 ft | 207 kts | 325° |
| 2026-05-04 14:58 | 24.78277 | 46.82804 | 4083 ft | 207 kts | 329° |
| 2026-05-04 14:58 | 24.79501 | 46.82032 | 3995 ft | 198 kts | 329° |
| 2026-05-04 14:58 | 24.80654 | 46.81318 | 3921 ft | 189 kts | 329° |
| 2026-05-04 14:59 | 24.81773 | 46.80602 | 3895 ft | 185 kts | 328° |
| 2026-05-04 14:59 | 24.82908 | 46.79886 | 3900 ft | 189 kts | 329° |
| 2026-05-04 14:59 | 24.85239 | 46.78323 | 3893 ft | 203 kts | 326° |
| 2026-05-04 15:00 | 24.86414 | 46.77519 | 3835 ft | 195 kts | 327° |
| 2026-05-04 15:00 | 24.87549 | 46.76745 | 3618 ft | 188 kts | 327° |
| 2026-05-04 15:00 | 24.88664 | 46.76013 | 3456 ft | 186 kts | 328° |
| 2026-05-04 15:01 | 24.90859 | 46.74567 | 3084 ft | 186 kts | 328° |
| 2026-05-04 15:01 | 24.91969 | 46.73837 | 2835 ft | 190 kts | 328° |
| 2026-05-04 15:01 | 24.93110 | 46.73104 | 2496 ft | 189 kts | 329° |
| 2026-05-04 15:01 | 24.94240 | 46.72381 | 2164 ft | 186 kts | 330° |
| 2026-05-04 15:02 | 24.95332 | 46.71689 | 2043 ft | 160 kts | 330° |
| 2026-05-04 15:02 | 24.96095 | 46.71205 | 2042 ft | 82 kts | 330° |
| 2026-05-04 15:02 | 24.96437 | 46.70968 | 2042 ft | 34 kts | 310° |
| 2026-05-04 15:02 | 24.96524 | 46.70814 | 2036 ft | 10 kts | 284° |
| 2026-05-04 15:03 | 24.96524 | 46.70811 | 2037 ft | 0 kts | 283° |
| 2026-05-04 15:04 | 24.96529 | 46.70775 | 2041 ft | 11 kts | 276° |
| 2026-05-04 15:04 | 24.96525 | 46.70720 | 2038 ft | 0 kts | 257° |
| 2026-05-04 15:04 | 24.96525 | 46.70719 | 2038 ft | 0 kts | 257° |
| 2026-05-04 15:05 | 24.96516 | 46.70691 | 2039 ft | 8 kts | 249° |
| 2026-05-04 15:05 | 24.96491 | 46.70638 | 2042 ft | 2 kts | 240° |
| 2026-05-04 15:05 | 24.96473 | 46.70602 | 2043 ft | 8 kts | 240° |
| 2026-05-04 15:05 | 24.96456 | 46.70568 | 2043 ft | 9 kts | 240° |
| 2026-05-04 15:06 | 24.96418 | 46.70495 | 2042 ft | 11 kts | 240° |
| 2026-05-04 15:06 | 24.96378 | 46.70427 | 2039 ft | 11 kts | 228° |
| 2026-05-04 15:06 | 24.96290 | 46.70426 | 2044 ft | 16 kts | 155° |
| 2026-05-04 15:07 | 24.96114 | 46.70535 | 2042 ft | 9 kts | 150° |
| 2026-05-04 15:07 | 24.96075 | 46.70535 | 2044 ft | 6 kts | 216° |
| 2026-05-04 15:07 | 24.96042 | 46.70509 | 2042 ft | 6 kts | 214° |
| 2026-05-04 15:07 | 24.96004 | 46.70485 | 2044 ft | 6 kts | 207° |
| 2026-05-04 15:08 | 24.95976 | 46.70472 | 2042 ft | 0 kts | 204° |
| 2026-05-04 15:08 | 24.95974 | 46.70471 | 2042 ft | 1 kts | 204° |
| 2026-05-04 15:08 | 24.95970 | 46.70469 | 2041 ft | 0 kts | 204° |